Time;durP1;ratioP1;P1;durP2;ratioP2;P2;SDS_P1;SDS_P2;PMS_P1;PMS_P2;Temp;Humidity;BMP_temperature;BMP_pressure;BME280_temperature;BME280_humidity;BME280_pressure;Samples;Min_cycle;Max_cycle;Signal;HPM_P1;HPM_P2
2023/09/01 00:01:03;;;;;;;6.97;4.47;;;;;;;12.98;100.00;100245.09;5120114;27;19955;-81
2023/09/01 00:03:30;;;;;;;9.70;3.90;;;;;;;12.94;100.00;100244.56;5121698;27;20019;-82
2023/09/01 00:05:55;;;;;;;5.75;3.70;;;;;;;12.90;100.00;100244.00;5126339;27;20123;-81
2023/09/01 00:08:23;;;;;;;4.82;3.45;;;;;;;12.88;100.00;100252.31;5129074;27;20078;-82
2023/09/01 00:10:49;;;;;;;4.57;3.67;;;;;;;12.76;100.00;100233.44;5128678;28;20050;-83
2023/09/01 00:13:14;;;;;;;4.45;3.22;;;;;;;12.91;100.00;100249.22;5116599;28;20019;-81
2023/09/01 00:15:41;;;;;;;8.68;3.70;;;;;;;12.91;100.00;100254.94;5131209;27;20069;-82
2023/09/01 00:18:07;;;;;;;3.60;3.15;;;;;;;12.91;100.00;100245.56;5127367;28;20023;-81
2023/09/01 00:20:34;;;;;;;4.90;3.60;;;;;;;12.91;100.00;100245.56;5126860;28;20026;-81
2023/09/01 00:23:03;;;;;;;5.47;3.35;;;;;;;12.82;100.00;100251.50;5130712;27;20091;-82
2023/09/01 00:25:29;;;;;;;5.15;3.33;;;;;;;13.11;100.00;100269.19;5121377;28;20471;-82
2023/09/01 00:27:54;;;;;;;3.80;2.58;;;;;;;13.17;100.00;100268.44;5120000;28;20023;-82
2023/09/01 00:30:21;;;;;;;5.35;4.07;;;;;;;13.22;100.00;100261.94;5121696;27;20019;-82
2023/09/01 00:32:48;;;;;;;4.80;2.90;;;;;;;13.33;100.00;100267.75;5121496;27;20051;-82
2023/09/01 00:35:13;;;;;;;6.32;3.22;;;;;;;13.32;100.00;100254.69;5120841;27;20039;-82
2023/09/01 00:37:38;;;;;;;5.32;2.78;;;;;;;13.47;100.00;100253.22;5120949;28;20354;-83
2023/09/01 00:40:04;;;;;;;4.85;2.90;;;;;;;13.45;100.00;100247.19;5107586;28;20051;-82
2023/09/01 00:42:30;;;;;;;3.70;3.03;;;;;;;13.64;100.00;100243.94;5126162;27;20028;-83
2023/09/01 00:44:58;;;;;;;6.20;3.00;;;;;;;13.72;100.00;100237.16;5107578;28;20024;-83
2023/09/01 00:47:24;;;;;;;7.80;3.10;;;;;;;13.77;100.00;100229.88;5101910;28;20052;-81
2023/09/01 00:49:50;;;;;;;2.65;2.42;;;;;;;13.76;100.00;100234.03;5123674;28;20134;-80
2023/09/01 00:52:16;;;;;;;6.07;3.00;;;;;;;13.77;100.00;100239.28;5125324;28;20043;-80
2023/09/01 00:54:42;;;;;;;5.40;2.67;;;;;;;13.88;100.00;100235.66;5118414;28;20526;-81
2023/09/01 00:57:07;;;;;;;4.15;2.75;;;;;;;13.94;100.00;100233.56;5117361;28;20023;-82
2023/09/01 00:59:34;;;;;;;4.65;2.70;;;;;;;13.99;100.00;100245.06;5118702;28;20031;-78
2023/09/01 01:02:00;;;;;;;4.00;3.00;;;;;;;14.05;100.00;100236.47;5115172;28;20031;-79
2023/09/01 01:04:26;;;;;;;6.45;3.25;;;;;;;14.07;100.00;100239.63;5098196;28;20023;-79
2023/09/01 01:07:27;;;;;;;6.85;3.30;;;;;;;14.09;100.00;100237.00;5115478;28;20108;-79
2023/09/01 01:10:03;;;;;;;3.42;2.13;;;;;;;14.13;100.00;100237.56;5116278;28;20035;-79
2023/09/01 01:12:54;;;;;;;5.13;2.65;;;;;;;14.08;100.00;100237.53;5116500;28;20440;-79
2023/09/01 01:15:22;;;;;;;6.63;2.60;;;;;;;14.02;100.00;100236.72;5116885;28;20035;-78
2023/09/01 01:17:49;;;;;;;4.47;2.85;;;;;;;13.91;100.00;100246.09;5115538;28;20035;-79
2023/09/01 01:20:34;;;;;;;4.15;2.83;;;;;;;14.10;100.00;100234.91;5116091;28;20059;-78
2023/09/01 01:23:09;;;;;;;4.47;2.55;;;;;;;14.13;100.00;100240.44;5114702;28;20577;-79
2023/09/01 01:25:36;;;;;;;3.22;2.08;;;;;;;14.16;100.00;100230.75;5116315;28;20421;-78
2023/09/01 01:28:15;;;;;;;4.10;2.70;;;;;;;14.17;100.00;100231.53;5116206;28;20031;-78
2023/09/01 01:30:41;;;;;;;6.20;2.97;;;;;;;14.21;100.00;100243.56;5114683;28;20464;-78
2023/09/01 01:33:54;;;;;;;5.60;2.47;;;;;;;14.22;100.00;100237.31;5115091;28;20023;-78
2023/09/01 01:36:59;;;;;;;6.63;2.75;;;;;;;14.24;100.00;100231.81;5074961;28;20065;-77
2023/09/01 01:39:35;;;;;;;4.30;3.08;;;;;;;14.32;100.00;100227.13;5074143;28;20048;-77
2023/09/01 01:42:18;;;;;;;3.92;2.63;;;;;;;14.30;100.00;100218.22;5091216;28;20032;-77
2023/09/01 01:44:47;;;;;;;5.30;2.60;;;;;;;14.31;100.00;100227.63;5106450;28;20388;-78
2023/09/01 01:47:15;;;;;;;6.78;2.55;;;;;;;14.33;100.00;100219.28;5114118;28;20027;-78
2023/09/01 01:49:41;;;;;;;4.28;2.50;;;;;;;14.22;100.00;100230.75;5114476;28;20054;-77
2023/09/01 01:52:07;;;;;;;3.63;2.50;;;;;;;14.19;100.00;100223.94;5113328;28;20055;-78
2023/09/01 01:54:33;;;;;;;2.95;2.50;;;;;;;14.10;100.00;100224.22;5095262;28;20059;-78
2023/09/01 01:57:00;;;;;;;3.33;2.38;;;;;;;14.02;100.00;100223.16;5111142;28;20453;-78
2023/09/01 01:59:36;;;;;;;5.45;2.30;;;;;;;13.95;100.00;100220.78;5113522;28;20035;-79
2023/09/01 02:02:05;;;;;;;6.93;2.88;;;;;;;13.84;100.00;100206.38;5114329;28;20107;-79
2023/09/01 02:04:36;;;;;;;4.22;2.97;;;;;;;13.86;100.00;100226.75;5113349;28;20031;-78
2023/09/01 02:07:05;;;;;;;6.03;2.53;;;;;;;13.86;100.00;100230.41;5115261;27;20350;-78
2023/09/01 02:09:33;;;;;;;4.43;2.22;;;;;;;13.85;100.00;100228.84;5114873;28;20028;-77
2023/09/01 02:11:59;;;;;;;3.45;2.30;;;;;;;13.74;100.00;100222.31;5097127;28;20035;-77
2023/09/01 02:14:27;;;;;;;5.53;2.60;;;;;;;13.80;100.00;100234.56;5113489;28;20452;-78
2023/09/01 02:16:53;;;;;;;4.03;2.58;;;;;;;13.82;100.00;100226.22;5115775;28;20023;-80
2023/09/01 02:19:21;;;;;;;3.80;2.25;;;;;;;13.85;100.00;100230.94;5114380;28;20027;-78
2023/09/01 02:21:48;;;;;;;5.68;2.45;;;;;;;13.87;100.00;100223.38;5115184;28;20080;-79
2023/09/01 02:24:14;;;;;;;3.25;2.80;;;;;;;13.89;100.00;100223.63;5113958;28;20028;-80
2023/09/01 02:26:39;;;;;;;3.53;2.10;;;;;;;13.91;100.00;100223.91;5114996;28;20027;-78
2023/09/01 02:29:05;;;;;;;7.18;2.15;;;;;;;13.89;100.00;100232.25;5096904;28;20030;-79
2023/09/01 02:31:32;;;;;;;8.50;2.65;;;;;;;13.89;100.00;100228.59;5115026;28;20077;-78
2023/09/01 02:33:58;;;;;;;5.47;2.08;;;;;;;13.91;100.00;100238.28;5113844;28;20095;-79
2023/09/01 02:36:32;;;;;;;3.80;2.03;;;;;;;13.92;100.00;100234.09;5096569;28;20453;-80
2023/09/01 02:39:00;;;;;;;3.80;2.25;;;;;;;13.93;100.00;100235.69;5113881;28;20062;-77
2023/09/01 02:41:26;;;;;;;3.63;2.22;;;;;;;13.97;100.00;100235.41;5113886;28;20114;-80
2023/09/01 02:43:52;;;;;;;3.60;2.40;;;;;;;14.00;100.00;100225.75;5113872;28;20106;-78
2023/09/01 02:46:18;;;;;;;4.55;1.80;;;;;;;13.89;100.00;100217.88;5113439;28;20026;-79
2023/09/01 02:48:46;;;;;;;3.63;2.13;;;;;;;13.81;100.00;100230.41;5113329;28;20532;-81
2023/09/01 02:51:13;;;;;;;3.47;2.00;;;;;;;13.72;100.00;100236.38;5114804;28;20111;-79
2023/09/01 02:53:40;;;;;;;2.35;1.90;;;;;;;13.63;100.00;100230.88;5113286;28;20019;-79
2023/09/01 02:56:05;;;;;;;3.22;2.15;;;;;;;13.64;100.00;100238.19;5113573;28;20080;-79
2023/09/01 02:58:32;;;;;;;3.03;2.05;;;;;;;13.90;100.00;100239.56;5113161;28;20110;-79
2023/09/01 03:01:07;;;;;;;3.20;2.60;;;;;;;13.82;100.00;100217.63;5113071;28;20027;-79
2023/09/01 03:03:35;;;;;;;4.80;2.13;;;;;;;13.91;100.00;100234.63;5096538;28;20024;-80
2023/09/01 03:06:00;;;;;;;4.80;2.08;;;;;;;13.79;100.00;100233.00;5114396;28;20469;-80
2023/09/01 03:08:26;;;;;;;6.43;2.10;;;;;;;13.74;100.00;100242.41;5112773;28;20044;-80
2023/09/01 03:10:52;;;;;;;3.22;1.80;;;;;;;13.74;100.00;100242.41;5096216;28;20019;-79
2023/09/01 03:13:17;;;;;;;3.10;2.17;;;;;;;13.54;100.00;100241.25;5079355;28;20020;-79
2023/09/01 03:15:43;;;;;;;3.58;2.13;;;;;;;13.44;100.00;100236.25;5114055;28;20107;-78
2023/09/01 03:18:10;;;;;;;2.30;1.90;;;;;;;13.37;100.00;100237.50;5112988;28;20464;-79
2023/09/01 03:20:41;;;;;;;3.78;2.20;;;;;;;13.33;100.00;100248.44;5114610;28;20024;-80
2023/09/01 03:23:07;;;;;;;5.55;2.20;;;;;;;13.27;100.00;100243.97;5112957;28;20048;-80
2023/09/01 03:25:33;;;;;;;2.92;2.00;;;;;;;13.06;100.00;100240.44;5114583;28;20102;-81
2023/09/01 03:27:58;;;;;;;5.18;2.35;;;;;;;12.98;100.00;100239.34;5114136;28;20114;-80
2023/09/01 03:30:24;;;;;;;6.32;2.05;;;;;;;13.05;100.00;100241.75;5113298;28;20043;-80
2023/09/01 03:32:49;;;;;;;5.47;2.47;;;;;;;12.98;100.00;100243.00;5114039;28;20055;-80
2023/09/01 03:35:15;;;;;;;8.27;1.95;;;;;;;12.86;100.00;100243.44;5112709;28;20058;-80
2023/09/01 03:37:49;;;;;;;3.30;1.95;;;;;;;12.73;100.00;100240.22;5113844;28;20024;-80
2023/09/01 03:40:16;;;;;;;4.85;2.30;;;;;;;12.70;100.00;100234.19;5113722;28;20545;-80
2023/09/01 03:42:42;;;;;;;3.08;2.10;;;;;;;12.75;100.00;100249.09;5112484;28;20491;-79
2023/09/01 03:45:08;;;;;;;2.28;1.67;;;;;;;12.73;100.00;100246.75;5114024;28;20019;-77
2023/09/01 03:47:36;;;;;;;4.05;2.47;;;;;;;12.70;100.00;100244.91;5112634;28;20039;-78
2023/09/01 03:50:02;;;;;;;4.63;2.17;;;;;;;12.62;100.00;100246.66;5114183;28;20020;-78
2023/09/01 03:52:28;;;;;;;2.47;2.00;;;;;;;12.51;100.00;100233.00;5113894;28;20480;-79
2023/09/01 03:54:53;;;;;;;2.92;2.30;;;;;;;12.51;100.00;100238.72;5112665;28;20030;-80
2023/09/01 03:57:20;;;;;;;5.88;2.30;;;;;;;12.50;100.00;100245.00;5113500;28;20031;-80
2023/09/01 03:59:48;;;;;;;5.35;2.22;;;;;;;12.46;100.00;100239.47;5113549;28;20499;-80
2023/09/01 04:02:15;;;;;;;1.95;1.85;;;;;;;12.46;100.00;100256.66;5095984;28;20032;-78
2023/09/01 04:04:42;;;;;;;2.65;2.20;;;;;;;12.52;100.00;100253.84;5113455;28;20055;-78
2023/09/01 04:07:09;;;;;;;5.38;2.25;;;;;;;12.29;100.00;100247.13;5113624;28;20031;-79
2023/09/01 04:09:37;;;;;;;4.20;2.00;;;;;;;12.54;100.00;100257.81;5095576;28;20023;-79
2023/09/01 04:12:04;;;;;;;3.00;2.08;;;;;;;12.52;100.00;100262.44;5095211;28;20024;-79
2023/09/01 04:14:30;;;;;;;3.50;2.05;;;;;;;12.36;100.00;100243.81;5113902;28;20065;-80
2023/09/01 04:16:56;;;;;;;3.38;2.30;;;;;;;12.40;100.00;100263.66;5113738;28;20047;-80
2023/09/01 04:19:21;;;;;;;4.18;1.83;;;;;;;12.46;100.00;100267.34;5094473;28;20497;-79
2023/09/01 04:21:47;;;;;;;4.63;2.17;;;;;;;12.50;100.00;100271.59;5114232;28;20039;-80
2023/09/01 04:24:13;;;;;;;7.50;2.63;;;;;;;12.49;100.00;100272.88;5117073;28;20031;-79
2023/09/01 04:26:40;;;;;;;2.97;2.15;;;;;;;12.55;100.00;100272.91;5117226;28;20031;-79
2023/09/01 04:29:07;;;;;;;4.22;1.95;;;;;;;12.53;100.00;100264.03;5117316;28;20027;-79
2023/09/01 04:31:33;;;;;;;3.97;2.35;;;;;;;12.58;100.00;100269.81;5117324;28;20024;-80
2023/09/01 04:33:59;;;;;;;4.00;2.00;;;;;;;12.62;100.00;100276.09;5116901;28;20120;-80
2023/09/01 04:36:25;;;;;;;2.50;2.15;;;;;;;12.54;100.00;100245.53;5117201;28;20051;-79
2023/09/01 04:38:52;;;;;;;4.45;2.13;;;;;;;12.72;100.00;100279.56;5115663;28;20540;-80
2023/09/01 04:41:19;;;;;;;4.25;2.08;;;;;;;12.75;100.00;100275.66;5117103;28;20431;-80
2023/09/01 04:43:46;;;;;;;5.22;2.28;;;;;;;12.85;100.00;100282.78;5115021;28;20043;-79
2023/09/01 04:46:12;;;;;;;8.00;2.55;;;;;;;12.88;100.00;100276.06;5117011;28;20031;-80
2023/09/01 04:48:37;;;;;;;3.63;1.88;;;;;;;13.01;100.00;100290.75;5115429;28;20126;-79
2023/09/01 04:51:03;;;;;;;3.60;2.10;;;;;;;13.02;100.00;100286.59;5116439;28;20044;-80
2023/09/01 04:53:32;;;;;;;4.47;2.33;;;;;;;13.13;100.00;100288.75;5116304;28;20469;-80
2023/09/01 04:56:00;;;;;;;2.80;2.22;;;;;;;13.19;100.00;100283.84;5116826;28;20044;-80
2023/09/01 04:58:27;;;;;;;5.40;2.45;;;;;;;13.35;100.00;100291.75;5115327;28;20075;-79
2023/09/01 05:00:54;;;;;;;6.85;2.40;;;;;;;13.49;100.00;100290.03;5116703;28;20050;-80
2023/09/01 05:03:34;;;;;;;4.40;2.20;;;;;;;13.63;100.00;100291.97;5116272;28;20047;-79
2023/09/01 05:06:04;;;;;;;5.50;4.43;;;;;;;13.75;100.00;100289.91;5115451;28;20184;-79
2023/09/01 05:08:30;;;;;;;3.88;2.30;;;;;;;13.87;100.00;100294.41;5116877;27;20023;-77
2023/09/01 05:10:57;;;;;;;4.50;2.30;;;;;;;13.98;100.00;100297.34;5115102;28;20062;-81
2023/09/01 05:13:22;;;;;;;3.40;2.28;;;;;;;14.05;100.00;100281.66;5115304;28;20031;-82
2023/09/01 05:15:52;;;;;;;5.10;2.28;;;;;;;14.23;100.00;100290.59;5115929;28;20024;-80
2023/09/01 05:18:26;;;;;;;4.72;2.45;;;;;;;14.37;100.00;100292.47;5115612;28;20128;-82
2023/09/01 05:20:51;;;;;;;4.88;2.78;;;;;;;14.42;100.00;100294.56;5116835;28;20034;-84
2023/09/01 05:23:18;;;;;;;5.47;2.70;;;;;;;14.53;100.00;100302.41;5117234;28;20035;-85
2023/09/01 05:25:55;;;;;;;7.07;3.25;;;;;;;14.67;100.00;100307.19;5130742;28;20031;-81
2023/09/01 05:28:22;;;;;;;5.80;2.33;;;;;;;14.66;100.00;100294.09;5132493;28;20049;-82
2023/09/01 05:30:49;;;;;;;6.78;2.50;;;;;;;14.63;100.00;100274.22;5127298;28;20369;-84
2023/09/01 05:33:15;;;;;;;3.35;2.42;;;;;;;14.97;100.00;100304.53;5118617;28;20027;-83
2023/09/01 05:35:43;;;;;;;13.38;2.92;;;;;;;15.05;100.00;100291.22;5116684;28;20039;-83
2023/09/01 05:38:09;;;;;;;5.03;2.50;;;;;;;15.17;100.00;100303.50;5117383;28;20029;-84
2023/09/01 05:40:43;;;;;;;7.22;2.53;;;;;;;15.20;100.00;100294.59;5117763;28;20121;-87
2023/09/01 05:43:09;;;;;;;4.85;2.60;;;;;;;15.42;100.00;100302.41;5120132;28;20034;-93
2023/09/01 05:45:35;;;;;;;7.45;2.50;;;;;;;15.45;100.00;100295.59;5122730;28;20065;-88
2023/09/01 05:48:00;;;;;;;12.07;2.75;;;;;;;15.53;100.00;100293.75;5129843;28;20137;-88
2023/09/01 05:50:32;;;;;;;10.13;2.50;;;;;;;15.62;100.00;100295.56;5136662;28;20028;-89
2023/09/01 05:53:02;;;;;;;4.65;2.50;;;;;;;15.76;100.00;100302.34;5130402;28;20035;-89
2023/09/01 05:55:29;;;;;;;3.75;2.40;;;;;;;15.80;100.00;100294.22;5118335;28;20038;-86
2023/09/01 05:57:54;;;;;;;7.25;2.50;;;;;;;15.91;100.00;100300.69;5117195;28;20032;-87
2023/09/01 06:00:22;;;;;;;15.50;3.85;;;;;;;16.02;100.00;100303.53;5116369;28;20413;-87
2023/09/01 06:02:51;;;;;;;8.32;2.67;;;;;;;16.18;100.00;100303.97;5116915;28;20106;-88
2023/09/01 06:05:17;;;;;;;4.43;2.63;;;;;;;16.36;100.00;100303.34;5115780;28;20464;-89
2023/09/01 06:07:43;;;;;;;9.98;2.60;;;;;;;16.49;100.00;100303.56;5096429;28;20109;-89
2023/09/01 06:10:16;;;;;;;4.85;2.42;;;;;;;16.47;100.00;100301.19;5114665;28;20035;-88
2023/09/01 06:12:46;;;;;;;10.13;2.50;;;;;;;16.63;100.00;100308.19;5114673;28;20419;-88
2023/09/01 06:15:12;;;;;;;4.70;2.75;;;;;;;16.71;100.00;100312.06;5115042;28;20039;-90
2023/09/01 06:17:41;;;;;;;8.80;3.20;;;;;;;16.74;100.00;100311.00;5113108;28;20131;-79
2023/09/01 06:20:08;;;;;;;5.07;2.55;;;;;;;16.84;100.00;100320.13;5112242;28;20069;-78
2023/09/01 06:22:34;;;;;;;7.82;2.47;;;;;;;16.98;100.00;100319.75;5114936;28;20038;-76
2023/09/01 06:25:00;;;;;;;4.82;2.42;;;;;;;17.12;100.00;100320.66;5115256;28;20046;-78
2023/09/01 06:27:29;;;;;;;6.30;2.85;;;;;;;17.33;100.00;100312.34;5114226;28;20392;-80
2023/09/01 06:29:56;;;;;;;6.00;2.60;;;;;;;17.66;100.00;100314.09;5113970;28;20051;-78
2023/09/01 06:32:23;;;;;;;7.82;3.58;;;;;;;18.23;100.00;100319.44;5115142;28;20040;-78
2023/09/01 06:34:49;;;;;;;5.13;2.42;;;;;;;18.77;100.00;100317.66;5111341;28;20039;-78
2023/09/01 06:37:15;;;;;;;5.97;2.22;;;;;;;19.69;100.00;100320.81;5096325;28;20434;-79
2023/09/01 06:39:41;;;;;;;4.80;1.98;;;;;;;20.61;100.00;100314.88;5114050;28;20492;-78
2023/09/01 06:42:12;;;;;;;5.25;2.92;;;;;;;21.92;100.00;100301.75;5113187;28;20059;-79
2023/09/01 06:44:47;;;;;;;9.85;3.83;;;;;;;22.99;100.00;100306.66;5113508;27;20066;-78
2023/09/01 06:47:13;;;;;;;3.72;1.80;;;;;;;24.11;100.00;100300.56;5112980;28;20031;-78
2023/09/01 06:49:40;;;;;;;4.28;2.10;;;;;;;25.13;100.00;100302.63;5113922;28;20480;-79
2023/09/01 06:52:05;;;;;;;3.67;1.75;;;;;;;26.17;100.00;100306.56;5114594;28;20020;-79
2023/09/01 06:54:30;;;;;;;5.93;2.47;;;;;;;26.68;100.00;100308.63;5114514;28;20084;-78
2023/09/01 06:56:56;;;;;;;3.25;2.13;;;;;;;27.08;98.19;100302.41;5114366;28;20120;-77
2023/09/01 06:59:21;;;;;;;5.68;2.47;;;;;;;27.71;96.07;100307.44;5107104;28;20169;-78
2023/09/01 07:01:49;;;;;;;7.53;2.30;;;;;;;28.47;93.26;100315.59;5093849;28;20048;-79
2023/09/01 07:04:16;;;;;;;6.88;2.15;;;;;;;29.20;87.18;100304.16;5094060;28;20074;-77
2023/09/01 07:06:41;;;;;;;6.03;2.20;;;;;;;29.73;74.60;100311.66;5093810;28;20487;-77
2023/09/01 07:09:07;;;;;;;4.38;1.95;;;;;;;30.27;78.23;100296.22;5093976;28;20123;-77
2023/09/01 07:11:39;;;;;;;6.13;2.28;;;;;;;30.61;61.51;100309.59;5093840;28;20031;-78
2023/09/01 07:14:05;;;;;;;5.53;2.22;;;;;;;30.65;61.58;100288.47;5101425;28;20028;-79
2023/09/01 07:16:30;;;;;;;4.72;2.17;;;;;;;30.44;64.19;100292.97;5113625;28;20088;-78
2023/09/01 07:18:56;;;;;;;4.30;2.10;;;;;;;30.67;64.56;100289.34;5112374;28;20051;-78
2023/09/01 07:21:21;;;;;;;4.50;2.20;;;;;;;31.05;66.90;100293.31;5113698;28;20453;-77
2023/09/01 07:23:48;;;;;;;5.50;2.03;;;;;;;31.34;63.06;100287.84;5111964;28;20069;-77
2023/09/01 07:26:14;;;;;;;3.83;1.55;;;;;;;31.45;57.14;100295.16;5112392;28;20028;-80
2023/09/01 07:28:39;;;;;;;6.88;1.80;;;;;;;31.75;57.38;100300.03;5113747;28;20027;-76
2023/09/01 07:31:10;;;;;;;6.25;2.15;;;;;;;31.67;50.84;100297.34;5113262;28;20039;-78
2023/09/01 07:33:36;;;;;;;8.48;1.92;;;;;;;30.88;55.68;100295.19;5113697;28;20053;-77
2023/09/01 07:36:02;;;;;;;3.88;1.95;;;;;;;30.87;54.88;100307.63;5096402;28;20041;-77
2023/09/01 07:38:27;;;;;;;7.38;2.03;;;;;;;30.99;53.74;100294.47;5111871;28;20031;-77
2023/09/01 07:40:53;;;;;;;2.88;1.80;;;;;;;30.85;52.16;100298.66;5109255;28;20031;-82
2023/09/01 07:43:18;;;;;;;3.40;1.95;;;;;;;31.10;53.24;100301.78;5094809;28;20034;-82
2023/09/01 07:45:44;;;;;;;7.65;2.00;;;;;;;31.22;53.25;100308.50;5112007;28;20388;-81
2023/09/01 07:48:10;;;;;;;8.93;2.15;;;;;;;31.33;59.18;100304.78;5112288;28;20119;-81
2023/09/01 07:50:36;;;;;;;3.58;1.63;;;;;;;31.75;59.90;100308.91;5112714;28;20114;-80
2023/09/01 07:53:02;;;;;;;7.13;2.50;;;;;;;32.07;52.04;100302.03;5111669;28;20449;-79
2023/09/01 07:55:27;;;;;;;6.18;2.05;;;;;;;32.72;55.58;100296.28;5114432;28;20449;-81
2023/09/01 07:57:54;;;;;;;6.28;1.67;;;;;;;32.94;47.65;100298.34;5117815;28;20051;-77
2023/09/01 08:00:19;;;;;;;3.00;1.50;;;;;;;33.00;43.65;100280.16;5115404;28;20114;-78
2023/09/01 08:02:46;;;;;;;4.95;1.60;;;;;;;32.56;43.22;100273.19;5116314;28;20106;-86
2023/09/01 08:05:11;;;;;;;3.13;1.65;;;;;;;31.55;43.92;100293.59;5117325;28;20035;-84
2023/09/01 08:07:37;;;;;;;4.93;2.60;;;;;;;31.36;47.65;100279.09;5117619;28;20036;-85
2023/09/01 08:10:03;;;;;;;3.88;1.92;;;;;;;31.30;51.18;100290.53;5117701;28;20027;-86
2023/09/01 08:12:29;;;;;;;6.43;2.53;;;;;;;31.40;49.98;100286.03;5117218;28;20039;-81
2023/09/01 08:14:55;;;;;;;4.63;1.65;;;;;;;31.12;49.49;100290.09;5117067;28;20031;-81
2023/09/01 08:17:21;;;;;;;3.75;1.90;;;;;;;31.21;43.10;100294.34;5116559;28;20097;-80
2023/09/01 08:19:47;;;;;;;4.45;1.67;;;;;;;30.87;47.29;100281.84;5098786;28;20024;-85
2023/09/01 08:22:13;;;;;;;2.58;1.80;;;;;;;30.88;47.84;100285.56;5116008;28;20062;-83
2023/09/01 08:24:38;;;;;;;3.50;1.90;;;;;;;30.89;47.09;100284.94;5116879;28;20440;-82
2023/09/01 08:27:04;;;;;;;9.02;1.80;;;;;;;30.69;49.09;100286.56;5115463;28;20473;-80
2023/09/01 08:29:30;;;;;;;10.95;2.05;;;;;;;30.32;45.51;100300.22;5115372;28;20034;-79
2023/09/01 08:31:56;;;;;;;4.20;1.80;;;;;;;30.21;47.66;100289.94;5116295;27;20031;-82
2023/09/01 08:34:21;;;;;;;5.05;2.25;;;;;;;30.23;48.92;100295.97;5116099;28;20020;-82
2023/09/01 08:36:48;;;;;;;7.40;2.00;;;;;;;30.25;48.22;100287.25;5114370;27;20051;-81
2023/09/01 08:39:14;;;;;;;8.02;1.85;;;;;;;30.09;50.21;100281.00;5115083;28;20051;-78
2023/09/01 08:41:40;;;;;;;6.65;2.05;;;;;;;29.43;51.39;100285.16;5116192;28;20035;-80
2023/09/01 08:44:08;;;;;;;5.50;2.05;;;;;;;28.85;57.93;100277.28;5116525;28;20019;-77
2023/09/01 08:46:35;;;;;;;7.03;1.80;;;;;;;28.73;61.49;100291.13;5115756;28;20287;-75
2023/09/01 08:49:02;;;;;;;3.88;1.90;;;;;;;28.80;58.00;100280.53;5114707;28;20521;-75
2023/09/01 08:51:28;;;;;;;6.32;2.22;;;;;;;28.74;61.13;100283.03;5115551;27;20043;-79
2023/09/01 08:53:53;;;;;;;5.57;2.05;;;;;;;28.84;58.59;100298.50;5115166;28;20069;-78
2023/09/01 08:56:18;;;;;;;5.82;2.10;;;;;;;29.03;62.05;100291.84;5116197;28;20044;-79
2023/09/01 08:58:46;;;;;;;6.43;2.08;;;;;;;29.24;59.19;100274.22;5116238;28;20046;-80
2023/09/01 09:01:13;;;;;;;3.33;2.13;;;;;;;29.14;63.02;100282.31;5114110;28;20118;-81
2023/09/01 09:03:39;;;;;;;5.25;2.15;;;;;;;28.87;62.37;100270.78;5114955;28;20186;-80
2023/09/01 09:06:05;;;;;;;4.35;2.15;;;;;;;28.66;56.04;100288.31;5117872;28;20392;-87
2023/09/01 09:08:31;;;;;;;3.30;1.98;;;;;;;28.35;59.00;100282.28;5115064;28;20046;-82
2023/09/01 09:10:56;;;;;;;5.55;1.83;;;;;;;28.40;58.70;100281.22;5116432;28;20024;-79
2023/09/01 09:13:26;;;;;;;5.63;2.25;;;;;;;28.26;60.12;100289.75;5116841;28;20019;-83
2023/09/01 09:16:13;;;;;;;4.13;2.30;;;;;;;27.93;62.38;100285.72;5115445;27;20019;-79
2023/09/01 09:18:48;;;;;;;3.67;1.70;;;;;;;27.69;69.97;100289.66;5114431;28;20027;-79
2023/09/01 09:21:26;;;;;;;6.72;2.08;;;;;;;27.84;71.15;100292.31;5115824;28;20038;-81
2023/09/01 09:23:52;;;;;;;4.40;1.80;;;;;;;28.12;71.27;100290.81;5115682;28;20107;-80
2023/09/01 09:26:27;;;;;;;4.30;2.20;;;;;;;28.20;72.54;100285.56;5114350;28;20100;-81
2023/09/01 09:28:53;;;;;;;3.22;2.05;;;;;;;28.29;71.83;100294.38;5098301;28;20089;-84
2023/09/01 09:31:28;;;;;;;9.75;2.25;;;;;;;27.94;67.54;100279.22;5114384;28;20035;-88
2023/09/01 09:33:54;;;;;;;6.57;2.40;;;;;;;27.60;72.68;100282.41;5115018;28;20453;-78
2023/09/01 09:36:32;;;;;;;8.90;2.40;;;;;;;27.45;71.84;100292.25;5113988;28;20035;-78
2023/09/01 09:38:57;;;;;;;5.47;1.88;;;;;;;27.49;72.59;100289.63;5114509;28;20054;-78
2023/09/01 09:41:23;;;;;;;4.15;1.95;;;;;;;27.37;73.00;100288.66;5115686;28;20027;-76
2023/09/01 09:43:49;;;;;;;4.25;1.90;;;;;;;27.28;76.11;100280.56;5114425;28;20028;-78
2023/09/01 09:46:16;;;;;;;10.82;2.55;;;;;;;27.29;77.83;100290.13;5114519;28;20054;-77
2023/09/01 09:48:42;;;;;;;6.35;2.10;;;;;;;27.46;76.72;100287.13;5115482;28;20106;-77
2023/09/01 09:51:08;;;;;;;5.55;2.70;;;;;;;27.68;77.98;100280.09;5115937;28;20038;-76
2023/09/01 09:53:36;;;;;;;4.10;2.25;;;;;;;27.65;77.55;100295.22;5115536;28;20028;-76
2023/09/01 09:56:18;;;;;;;7.28;2.35;;;;;;;27.49;75.04;100298.44;5115507;28;20032;-76
2023/09/01 09:58:45;;;;;;;6.55;2.10;;;;;;;27.43;73.82;100291.28;5115589;28;20470;-77
2023/09/01 10:01:16;;;;;;;4.20;2.17;;;;;;;27.12;76.89;100279.25;5097257;28;20118;-79
2023/09/01 10:03:41;;;;;;;7.50;3.05;;;;;;;26.68;76.88;100283.00;5115753;28;20032;-78
2023/09/01 10:06:07;;;;;;;5.18;2.35;;;;;;;26.40;78.61;100288.69;5114022;28;20580;-78
2023/09/01 10:08:33;;;;;;;3.15;2.10;;;;;;;25.97;77.11;100296.78;5113934;28;20035;-77
2023/09/01 10:10:59;;;;;;;5.75;2.30;;;;;;;25.80;84.22;100293.84;5113858;28;20024;-80
2023/09/01 10:13:24;;;;;;;4.43;2.40;;;;;;;25.57;82.15;100278.66;5114014;28;20380;-77
2023/09/01 10:15:51;;;;;;;6.25;2.40;;;;;;;25.48;86.33;100286.69;5114340;28;20522;-77
2023/09/01 10:18:17;;;;;;;5.43;2.13;;;;;;;25.46;90.37;100279.91;5112932;28;20513;-78
2023/09/01 10:20:43;;;;;;;6.03;2.90;;;;;;;25.65;95.04;100283.06;5114438;28;20353;-79
2023/09/01 10:23:10;;;;;;;5.18;2.00;;;;;;;25.88;94.12;100274.81;5113598;28;20023;-77
2023/09/01 10:25:37;;;;;;;7.15;2.47;;;;;;;26.19;95.08;100275.25;5113803;28;20024;-78
2023/09/01 10:28:13;;;;;;;7.90;3.90;;;;;;;26.56;91.92;100279.09;5114008;28;20019;-77
2023/09/01 10:30:47;;;;;;;5.35;2.72;;;;;;;26.76;86.74;100268.28;5096895;28;20034;-77
2023/09/01 10:33:25;;;;;;;8.15;2.95;;;;;;;26.76;82.12;100271.22;5113402;28;20524;-78
2023/09/01 10:35:57;;;;;;;5.53;2.05;;;;;;;26.43;82.22;100273.59;5096362;28;20020;-73
2023/09/01 10:38:35;;;;;;;3.17;1.98;;;;;;;26.18;92.25;100293.44;5113387;28;20051;-74
2023/09/01 10:41:00;;;;;;;4.32;2.53;;;;;;;25.91;89.72;100284.56;5113958;27;20043;-76
2023/09/01 10:43:35;;;;;;;5.20;2.15;;;;;;;25.83;87.01;100284.63;5114076;28;20109;-76
2023/09/01 10:46:14;;;;;;;5.32;2.15;;;;;;;25.60;87.41;100280.38;5114273;28;20035;-74
2023/09/01 10:48:52;;;;;;;4.60;2.15;;;;;;;25.64;87.58;100280.72;5114503;28;20033;-74
2023/09/01 10:51:19;;;;;;;9.23;2.78;;;;;;;25.77;97.75;100278.28;5113033;28;20463;-77
2023/09/01 10:53:47;;;;;;;5.38;1.95;;;;;;;26.07;94.95;100268.38;5113398;28;20020;-75
2023/09/01 10:56:15;;;;;;;3.17;2.13;;;;;;;26.33;92.98;100267.66;5096587;28;20035;-75
2023/09/01 10:58:47;;;;;;;4.20;2.30;;;;;;;26.42;91.11;100262.50;5096443;28;20024;-76
2023/09/01 11:01:35;;;;;;;8.05;2.85;;;;;;;26.55;86.56;100262.09;5112772;28;20035;-82
2023/09/01 11:04:21;;;;;;;7.30;2.05;;;;;;;26.54;81.00;100260.56;5113153;28;20118;-79
2023/09/01 11:06:56;;;;;;;6.97;2.08;;;;;;;26.45;85.52;100261.25;5114732;28;20038;-79
2023/09/01 11:09:22;;;;;;;2.22;1.63;;;;;;;26.43;87.47;100258.94;5114530;27;20384;-77
2023/09/01 11:11:51;;;;;;;4.53;1.75;;;;;;;26.40;81.80;100257.22;5114196;28;20023;-77
2023/09/01 11:14:20;;;;;;;4.20;2.05;;;;;;;26.27;80.21;100248.81;5113729;28;20479;-76
2023/09/01 11:16:45;;;;;;;5.03;2.42;;;;;;;26.22;82.26;100252.78;5096226;28;20437;-79
2023/09/01 11:19:11;;;;;;;8.25;2.20;;;;;;;26.08;86.15;100258.19;5095968;28;20035;-82
2023/09/01 11:21:37;;;;;;;5.93;2.03;;;;;;;26.00;84.78;100263.34;5114298;28;20410;-80
2023/09/01 11:24:05;;;;;;;8.52;2.10;;;;;;;25.66;90.33;100251.63;5112758;28;20028;-76